sensor_id;sensor_type;location;lat;lon;timestamp;P1;durP1;ratioP1;P2;durP2;ratioP2
22026;SDS011;11177;50.966;10.070;2022-10-16T00:01:40;3.83;;;3.00;;
22026;SDS011;11177;50.966;10.070;2022-10-16T00:04:08;6.47;;;2.63;;
22026;SDS011;11177;50.966;10.070;2022-10-16T00:06:37;5.88;;;2.80;;
22026;SDS011;11177;50.966;10.070;2022-10-16T00:09:04;5.15;;;2.60;;
22026;SDS011;11177;50.966;10.070;2022-10-16T00:11:34;4.35;;;2.88;;
22026;SDS011;11177;50.966;10.070;2022-10-16T00:14:06;4.57;;;3.10;;
22026;SDS011;11177;50.966;10.070;2022-10-16T00:16:34;5.20;;;2.92;;
22026;SDS011;11177;50.966;10.070;2022-10-16T00:19:02;6.35;;;3.30;;
22026;SDS011;11177;50.966;10.070;2022-10-16T00:21:31;4.55;;;3.10;;
22026;SDS011;11177;50.966;10.070;2022-10-16T00:24:08;5.40;;;3.00;;
22026;SDS011;11177;50.966;10.070;2022-10-16T00:26:39;3.70;;;2.88;;
22026;SDS011;11177;50.966;10.070;2022-10-16T00:29:07;7.07;;;2.90;;
22026;SDS011;11177;50.966;10.070;2022-10-16T00:31:35;4.93;;;3.25;;
22026;SDS011;11177;50.966;10.070;2022-10-16T00:34:06;4.28;;;3.20;;
22026;SDS011;11177;50.966;10.070;2022-10-16T00:36:33;4.25;;;2.92;;
22026;SDS011;11177;50.966;10.070;2022-10-16T00:39:02;5.78;;;2.90;;
22026;SDS011;11177;50.966;10.070;2022-10-16T00:41:29;5.45;;;2.80;;
22026;SDS011;11177;50.966;10.070;2022-10-16T00:43:59;5.10;;;2.40;;
22026;SDS011;11177;50.966;10.070;2022-10-16T00:46:46;3.33;;;2.40;;
22026;SDS011;11177;50.966;10.070;2022-10-16T00:49:14;2.50;;;2.30;;
22026;SDS011;11177;50.966;10.070;2022-10-16T00:51:43;2.58;;;2.10;;
22026;SDS011;11177;50.966;10.070;2022-10-16T00:54:24;4.55;;;2.30;;
22026;SDS011;11177;50.966;10.070;2022-10-16T00:56:56;6.78;;;2.40;;
22026;SDS011;11177;50.966;10.070;2022-10-16T00:59:29;2.47;;;2.28;;
22026;SDS011;11177;50.966;10.070;2022-10-16T01:01:58;4.07;;;2.05;;
22026;SDS011;11177;50.966;10.070;2022-10-16T01:04:34;3.00;;;2.28;;
22026;SDS011;11177;50.966;10.070;2022-10-16T01:10:27;3.92;;;2.55;;
22026;SDS011;11177;50.966;10.070;2022-10-16T01:16:22;4.88;;;2.45;;
22026;SDS011;11177;50.966;10.070;2022-10-16T01:18:57;6.38;;;2.50;;
22026;SDS011;11177;50.966;10.070;2022-10-16T01:21:35;2.53;;;2.30;;
22026;SDS011;11177;50.966;10.070;2022-10-16T01:24:08;2.53;;;2.33;;
22026;SDS011;11177;50.966;10.070;2022-10-16T01:32:50;3.97;;;2.60;;
22026;SDS011;11177;50.966;10.070;2022-10-16T01:38:16;3.53;;;2.03;;
22026;SDS011;11177;50.966;10.070;2022-10-16T01:40:46;4.03;;;2.28;;
22026;SDS011;11177;50.966;10.070;2022-10-16T01:43:21;2.97;;;2.33;;
22026;SDS011;11177;50.966;10.070;2022-10-16T01:45:51;3.92;;;2.40;;
22026;SDS011;11177;50.966;10.070;2022-10-16T01:48:19;3.15;;;2.53;;
22026;SDS011;11177;50.966;10.070;2022-10-16T01:53:45;5.78;;;2.30;;
22026;SDS011;11177;50.966;10.070;2022-10-16T01:56:23;4.50;;;2.92;;
22026;SDS011;11177;50.966;10.070;2022-10-16T01:58:53;6.20;;;3.00;;
22026;SDS011;11177;50.966;10.070;2022-10-16T02:01:31;9.25;;;2.97;;
22026;SDS011;11177;50.966;10.070;2022-10-16T02:04:03;5.63;;;2.83;;
22026;SDS011;11177;50.966;10.070;2022-10-16T02:06:36;4.75;;;2.60;;
22026;SDS011;11177;50.966;10.070;2022-10-16T02:09:04;2.65;;;2.10;;
22026;SDS011;11177;50.966;10.070;2022-10-16T02:11:35;2.55;;;1.80;;
22026;SDS011;11177;50.966;10.070;2022-10-16T02:14:04;3.30;;;1.90;;
22026;SDS011;11177;50.966;10.070;2022-10-16T02:16:34;3.63;;;2.05;;
22026;SDS011;11177;50.966;10.070;2022-10-16T02:19:05;3.30;;;2.20;;
22026;SDS011;11177;50.966;10.070;2022-10-16T02:21:40;5.28;;;2.30;;
22026;SDS011;11177;50.966;10.070;2022-10-16T02:27:33;6.55;;;2.70;;
22026;SDS011;11177;50.966;10.070;2022-10-16T02:30:13;8.50;;;2.90;;
22026;SDS011;11177;50.966;10.070;2022-10-16T02:32:47;4.20;;;2.92;;
22026;SDS011;11177;50.966;10.070;2022-10-16T02:35:19;5.22;;;2.80;;
22026;SDS011;11177;50.966;10.070;2022-10-16T02:37:48;5.70;;;2.65;;
22026;SDS011;11177;50.966;10.070;2022-10-16T02:40:20;5.30;;;2.65;;
22026;SDS011;11177;50.966;10.070;2022-10-16T02:42:51;3.30;;;2.90;;
22026;SDS011;11177;50.966;10.070;2022-10-16T02:45:21;6.35;;;3.15;;
22026;SDS011;11177;50.966;10.070;2022-10-16T02:47:51;4.15;;;2.85;;
22026;SDS011;11177;50.966;10.070;2022-10-16T02:50:21;3.47;;;3.17;;
22026;SDS011;11177;50.966;10.070;2022-10-16T02:52:50;5.90;;;2.83;;
22026;SDS011;11177;50.966;10.070;2022-10-16T02:55:18;4.32;;;3.17;;
22026;SDS011;11177;50.966;10.070;2022-10-16T02:57:46;7.22;;;3.33;;
22026;SDS011;11177;50.966;10.070;2022-10-16T03:00:15;4.45;;;3.28;;
22026;SDS011;11177;50.966;10.070;2022-10-16T03:02:45;8.07;;;3.10;;
22026;SDS011;11177;50.966;10.070;2022-10-16T03:05:15;7.60;;;3.13;;
22026;SDS011;11177;50.966;10.070;2022-10-16T03:07:44;4.55;;;3.28;;
22026;SDS011;11177;50.966;10.070;2022-10-16T03:10:12;3.85;;;3.13;;
22026;SDS011;11177;50.966;10.070;2022-10-16T03:12:40;4.63;;;3.00;;
22026;SDS011;11177;50.966;10.070;2022-10-16T03:15:09;6.13;;;2.70;;
22026;SDS011;11177;50.966;10.070;2022-10-16T03:17:37;4.40;;;3.08;;
22026;SDS011;11177;50.966;10.070;2022-10-16T03:20:05;4.70;;;3.17;;
22026;SDS011;11177;50.966;10.070;2022-10-16T03:22:34;5.68;;;3.40;;
22026;SDS011;11177;50.966;10.070;2022-10-16T03:25:03;5.10;;;3.65;;
22026;SDS011;11177;50.966;10.070;2022-10-16T03:27:33;6.40;;;4.50;;
22026;SDS011;11177;50.966;10.070;2022-10-16T03:30:03;5.53;;;3.47;;
22026;SDS011;11177;50.966;10.070;2022-10-16T03:32:31;7.00;;;3.95;;
22026;SDS011;11177;50.966;10.070;2022-10-16T03:35:00;6.22;;;4.10;;
22026;SDS011;11177;50.966;10.070;2022-10-16T03:37:32;3.70;;;3.40;;
22026;SDS011;11177;50.966;10.070;2022-10-16T03:40:01;5.97;;;3.20;;
22026;SDS011;11177;50.966;10.070;2022-10-16T03:42:33;6.07;;;3.00;;
22026;SDS011;11177;50.966;10.070;2022-10-16T03:45:01;3.50;;;2.65;;
22026;SDS011;11177;50.966;10.070;2022-10-16T03:47:29;3.85;;;3.05;;
22026;SDS011;11177;50.966;10.070;2022-10-16T03:49:56;4.47;;;2.90;;
22026;SDS011;11177;50.966;10.070;2022-10-16T03:52:25;6.72;;;3.13;;
22026;SDS011;11177;50.966;10.070;2022-10-16T03:54:55;2.83;;;2.20;;
22026;SDS011;11177;50.966;10.070;2022-10-16T03:57:22;2.88;;;2.13;;
22026;SDS011;11177;50.966;10.070;2022-10-16T03:59:51;3.88;;;2.17;;
22026;SDS011;11177;50.966;10.070;2022-10-16T04:02:19;2.75;;;2.40;;
22026;SDS011;11177;50.966;10.070;2022-10-16T04:04:49;5.05;;;2.55;;
22026;SDS011;11177;50.966;10.070;2022-10-16T04:07:18;6.78;;;2.45;;
22026;SDS011;11177;50.966;10.070;2022-10-16T04:09:46;3.50;;;2.38;;
22026;SDS011;11177;50.966;10.070;2022-10-16T04:12:16;3.70;;;2.05;;
22026;SDS011;11177;50.966;10.070;2022-10-16T04:14:44;5.25;;;2.30;;
22026;SDS011;11177;50.966;10.070;2022-10-16T04:17:11;2.97;;;2.28;;
22026;SDS011;11177;50.966;10.070;2022-10-16T04:19:39;6.75;;;2.72;;
22026;SDS011;11177;50.966;10.070;2022-10-16T04:22:08;3.40;;;2.70;;
22026;SDS011;11177;50.966;10.070;2022-10-16T04:24:37;3.33;;;2.22;;
22026;SDS011;11177;50.966;10.070;2022-10-16T04:27:06;5.22;;;2.17;;
22026;SDS011;11177;50.966;10.070;2022-10-16T04:29:36;3.25;;;2.20;;
22026;SDS011;11177;50.966;10.070;2022-10-16T04:32:08;2.25;;;2.05;;
22026;SDS011;11177;50.966;10.070;2022-10-16T04:34:38;3.92;;;2.40;;
22026;SDS011;11177;50.966;10.070;2022-10-16T04:37:10;4.28;;;2.30;;
22026;SDS011;11177;50.966;10.070;2022-10-16T04:39:40;2.65;;;2.10;;
22026;SDS011;11177;50.966;10.070;2022-10-16T04:42:11;2.20;;;1.90;;
22026;SDS011;11177;50.966;10.070;2022-10-16T04:44:41;2.83;;;2.13;;
22026;SDS011;11177;50.966;10.070;2022-10-16T04:47:11;2.20;;;2.00;;
22026;SDS011;11177;50.966;10.070;2022-10-16T04:49:40;2.15;;;2.00;;
22026;SDS011;11177;50.966;10.070;2022-10-16T04:52:08;2.30;;;2.10;;
22026;SDS011;11177;50.966;10.070;2022-10-16T04:54:36;4.65;;;2.22;;
22026;SDS011;11177;50.966;10.070;2022-10-16T04:57:04;2.17;;;2.08;;
22026;SDS011;11177;50.966;10.070;2022-10-16T04:59:35;5.32;;;2.00;;
22026;SDS011;11177;50.966;10.070;2022-10-16T05:02:05;4.00;;;2.55;;
22026;SDS011;11177;50.966;10.070;2022-10-16T05:04:34;4.18;;;2.40;;
22026;SDS011;11177;50.966;10.070;2022-10-16T05:07:07;3.60;;;2.30;;
22026;SDS011;11177;50.966;10.070;2022-10-16T05:09:37;4.20;;;2.40;;
22026;SDS011;11177;50.966;10.070;2022-10-16T05:12:06;3.58;;;2.63;;
22026;SDS011;11177;50.966;10.070;2022-10-16T05:14:42;3.50;;;3.10;;
22026;SDS011;11177;50.966;10.070;2022-10-16T05:17:09;3.90;;;3.60;;
22026;SDS011;11177;50.966;10.070;2022-10-16T05:19:39;4.82;;;4.25;;
22026;SDS011;11177;50.966;10.070;2022-10-16T05:22:11;7.03;;;5.07;;
22026;SDS011;11177;50.966;10.070;2022-10-16T05:24:41;8.73;;;5.20;;
22026;SDS011;11177;50.966;10.070;2022-10-16T05:27:11;7.38;;;4.57;;
22026;SDS011;11177;50.966;10.070;2022-10-16T05:29:46;7.43;;;4.90;;
22026;SDS011;11177;50.966;10.070;2022-10-16T05:32:14;7.68;;;4.90;;
22026;SDS011;11177;50.966;10.070;2022-10-16T05:34:42;6.65;;;5.60;;
22026;SDS011;11177;50.966;10.070;2022-10-16T05:37:14;7.75;;;5.57;;
22026;SDS011;11177;50.966;10.070;2022-10-16T05:39:42;7.80;;;5.82;;
22026;SDS011;11177;50.966;10.070;2022-10-16T05:42:15;7.85;;;5.82;;
22026;SDS011;11177;50.966;10.070;2022-10-16T05:44:45;7.28;;;6.03;;
22026;SDS011;11177;50.966;10.070;2022-10-16T05:47:14;11.70;;;5.45;;
22026;SDS011;11177;50.966;10.070;2022-10-16T05:49:44;7.40;;;5.43;;
22026;SDS011;11177;50.966;10.070;2022-10-16T05:52:11;8.95;;;5.90;;
22026;SDS011;11177;50.966;10.070;2022-10-16T05:54:39;7.97;;;5.70;;
22026;SDS011;11177;50.966;10.070;2022-10-16T05:57:07;6.25;;;5.28;;
22026;SDS011;11177;50.966;10.070;2022-10-16T05:59:38;5.00;;;4.50;;
22026;SDS011;11177;50.966;10.070;2022-10-16T06:02:13;6.13;;;4.88;;
22026;SDS011;11177;50.966;10.070;2022-10-16T06:04:43;6.40;;;4.67;;
22026;SDS011;11177;50.966;10.070;2022-10-16T06:07:11;5.68;;;4.90;;
22026;SDS011;11177;50.966;10.070;2022-10-16T06:09:42;5.03;;;4.53;;
22026;SDS011;11177;50.966;10.070;2022-10-16T06:12:10;4.78;;;3.78;;
22026;SDS011;11177;50.966;10.070;2022-10-16T06:14:44;4.15;;;3.42;;
22026;SDS011;11177;50.966;10.070;2022-10-16T06:17:18;3.78;;;3.08;;
22026;SDS011;11177;50.966;10.070;2022-10-16T06:19:45;3.63;;;2.80;;
22026;SDS011;11177;50.966;10.070;2022-10-16T06:22:14;2.58;;;2.38;;
22026;SDS011;11177;50.966;10.070;2022-10-16T06:24:43;2.75;;;2.30;;
22026;SDS011;11177;50.966;10.070;2022-10-16T06:27:14;8.15;;;2.25;;
22026;SDS011;11177;50.966;10.070;2022-10-16T06:29:45;4.65;;;2.30;;
22026;SDS011;11177;50.966;10.070;2022-10-16T06:32:16;3.13;;;2.42;;
22026;SDS011;11177;50.966;10.070;2022-10-16T06:34:44;4.97;;;3.38;;
22026;SDS011;11177;50.966;10.070;2022-10-16T06:37:15;5.80;;;4.25;;
22026;SDS011;11177;50.966;10.070;2022-10-16T06:39:47;3.97;;;3.58;;
22026;SDS011;11177;50.966;10.070;2022-10-16T06:42:18;4.13;;;3.60;;
22026;SDS011;11177;50.966;10.070;2022-10-16T06:47:21;2.78;;;2.30;;
22026;SDS011;11177;50.966;10.070;2022-10-16T06:49:52;6.20;;;3.58;;
22026;SDS011;11177;50.966;10.070;2022-10-16T06:52:23;3.17;;;2.80;;
22026;SDS011;11177;50.966;10.070;2022-10-16T06:54:56;2.50;;;2.30;;
22026;SDS011;11177;50.966;10.070;2022-10-16T06:57:24;4.32;;;2.20;;
22026;SDS011;11177;50.966;10.070;2022-10-16T06:59:57;2.08;;;1.90;;
22026;SDS011;11177;50.966;10.070;2022-10-16T07:02:27;7.68;;;2.47;;
22026;SDS011;11177;50.966;10.070;2022-10-16T07:04:58;7.93;;;3.28;;
22026;SDS011;11177;50.966;10.070;2022-10-16T07:07:31;6.65;;;2.90;;
22026;SDS011;11177;50.966;10.070;2022-10-16T07:10:05;3.13;;;2.08;;
22026;SDS011;11177;50.966;10.070;2022-10-16T07:12:34;1.80;;;1.70;;
22026;SDS011;11177;50.966;10.070;2022-10-16T07:15:06;1.55;;;1.45;;
22026;SDS011;11177;50.966;10.070;2022-10-16T07:17:36;3.67;;;1.80;;
22026;SDS011;11177;50.966;10.070;2022-10-16T07:20:04;2.03;;;1.70;;
22026;SDS011;11177;50.966;10.070;2022-10-16T07:22:31;3.42;;;1.60;;
22026;SDS011;11177;50.966;10.070;2022-10-16T07:25:01;2.15;;;1.52;;
22026;SDS011;11177;50.966;10.070;2022-10-16T07:27:34;2.38;;;1.60;;
22026;SDS011;11177;50.966;10.070;2022-10-16T07:30:05;3.25;;;1.80;;
22026;SDS011;11177;50.966;10.070;2022-10-16T07:32:35;1.58;;;1.48;;
22026;SDS011;11177;50.966;10.070;2022-10-16T07:35:06;4.03;;;2.20;;
22026;SDS011;11177;50.966;10.070;2022-10-16T07:37:35;4.88;;;2.05;;
22026;SDS011;11177;50.966;10.070;2022-10-16T07:40:07;2.92;;;1.80;;
22026;SDS011;11177;50.966;10.070;2022-10-16T07:42:41;8.13;;;2.80;;
22026;SDS011;11177;50.966;10.070;2022-10-16T07:45:12;3.53;;;2.00;;
22026;SDS011;11177;50.966;10.070;2022-10-16T07:47:42;5.13;;;2.35;;
22026;SDS011;11177;50.966;10.070;2022-10-16T07:50:13;3.90;;;2.25;;
22026;SDS011;11177;50.966;10.070;2022-10-16T07:52:43;2.78;;;2.10;;
22026;SDS011;11177;50.966;10.070;2022-10-16T07:55:15;3.95;;;1.83;;
22026;SDS011;11177;50.966;10.070;2022-10-16T07:57:45;3.67;;;1.88;;
22026;SDS011;11177;50.966;10.070;2022-10-16T08:00:15;2.72;;;1.80;;
22026;SDS011;11177;50.966;10.070;2022-10-16T08:02:44;3.60;;;1.80;;
22026;SDS011;11177;50.966;10.070;2022-10-16T08:05:15;3.20;;;1.80;;
22026;SDS011;11177;50.966;10.070;2022-10-16T08:07:49;3.30;;;1.58;;
22026;SDS011;11177;50.966;10.070;2022-10-16T08:10:21;4.63;;;1.90;;
22026;SDS011;11177;50.966;10.070;2022-10-16T08:12:55;4.43;;;1.80;;
22026;SDS011;11177;50.966;10.070;2022-10-16T08:15:26;6.45;;;1.90;;
22026;SDS011;11177;50.966;10.070;2022-10-16T08:17:55;7.25;;;2.00;;
22026;SDS011;11177;50.966;10.070;2022-10-16T08:20:26;4.20;;;2.10;;
22026;SDS011;11177;50.966;10.070;2022-10-16T08:22:55;4.50;;;2.25;;
22026;SDS011;11177;50.966;10.070;2022-10-16T08:25:24;2.03;;;1.50;;
22026;SDS011;11177;50.966;10.070;2022-10-16T08:27:52;2.50;;;1.73;;
22026;SDS011;11177;50.966;10.070;2022-10-16T08:30:23;3.72;;;1.83;;
22026;SDS011;11177;50.966;10.070;2022-10-16T08:32:53;2.03;;;1.80;;
22026;SDS011;11177;50.966;10.070;2022-10-16T08:35:21;3.75;;;1.55;;
22026;SDS011;11177;50.966;10.070;2022-10-16T08:37:52;2.60;;;1.40;;
22026;SDS011;11177;50.966;10.070;2022-10-16T08:40:25;3.85;;;1.50;;
22026;SDS011;11177;50.966;10.070;2022-10-16T08:43:12;4.32;;;1.50;;
22026;SDS011;11177;50.966;10.070;2022-10-16T08:49:09;2.33;;;1.33;;
22026;SDS011;11177;50.966;10.070;2022-10-16T08:51:43;2.60;;;1.50;;
22026;SDS011;11177;50.966;10.070;2022-10-16T08:54:34;3.47;;;1.77;;
22026;SDS011;11177;50.966;10.070;2022-10-16T08:57:12;4.18;;;2.67;;
22026;SDS011;11177;50.966;10.070;2022-10-16T08:59:51;4.30;;;2.08;;
22026;SDS011;11177;50.966;10.070;2022-10-16T09:02:27;6.47;;;2.28;;
22026;SDS011;11177;50.966;10.070;2022-10-16T09:05:43;7.07;;;2.35;;
22026;SDS011;11177;50.966;10.070;2022-10-16T09:08:29;3.80;;;2.42;;
22026;SDS011;11177;50.966;10.070;2022-10-16T09:11:20;3.72;;;2.47;;
22026;SDS011;11177;50.966;10.070;2022-10-16T09:14:07;5.38;;;2.25;;
22026;SDS011;11177;50.966;10.070;2022-10-16T09:17:18;5.07;;;2.42;;
22026;SDS011;11177;50.966;10.070;2022-10-16T09:20:20;2.93;;;2.27;;
22026;SDS011;11177;50.966;10.070;2022-10-16T09:25:42;11.10;;;4.05;;
22026;SDS011;11177;50.966;10.070;2022-10-16T09:28:11;6.55;;;3.28;;
22026;SDS011;11177;50.966;10.070;2022-10-16T09:30:40;3.70;;;2.30;;
22026;SDS011;11177;50.966;10.070;2022-10-16T09:33:11;3.70;;;1.92;;
22026;SDS011;11177;50.966;10.070;2022-10-16T09:38:27;3.58;;;1.75;;
22026;SDS011;11177;50.966;10.070;2022-10-16T09:41:02;8.52;;;1.98;;
22026;SDS011;11177;50.966;10.070;2022-10-16T09:43:51;1.80;;;1.70;;
22026;SDS011;11177;50.966;10.070;2022-10-16T09:46:21;3.55;;;1.60;;
22026;SDS011;11177;50.966;10.070;2022-10-16T09:48:51;2.40;;;2.20;;
22026;SDS011;11177;50.966;10.070;2022-10-16T09:51:24;2.08;;;1.88;;
22026;SDS011;11177;50.966;10.070;2022-10-16T09:54:16;3.65;;;1.50;;
22026;SDS011;11177;50.966;10.070;2022-10-16T09:56:48;2.33;;;1.60;;
22026;SDS011;11177;50.966;10.070;2022-10-16T09:59:19;2.55;;;1.50;;
22026;SDS011;11177;50.966;10.070;2022-10-16T10:01:51;2.58;;;1.60;;
22026;SDS011;11177;50.966;10.070;2022-10-16T10:04:23;2.92;;;2.58;;
22026;SDS011;11177;50.966;10.070;2022-10-16T10:06:55;1.73;;;1.38;;
22026;SDS011;11177;50.966;10.070;2022-10-16T10:09:23;1.40;;;1.30;;
22026;SDS011;11177;50.966;10.070;2022-10-16T10:11:59;0.95;;;0.95;;
22026;SDS011;11177;50.966;10.070;2022-10-16T10:14:36;2.55;;;0.90;;
22026;SDS011;11177;50.966;10.070;2022-10-16T10:19:53;0.68;;;0.68;;
22026;SDS011;11177;50.966;10.070;2022-10-16T10:22:31;1.55;;;0.70;;
22026;SDS011;11177;50.966;10.070;2022-10-16T10:41:05;0.60;;;0.60;;
22026;SDS011;11177;50.966;10.070;2022-10-16T10:46:15;0.75;;;0.52;;
22026;SDS011;11177;50.966;10.070;2022-10-16T10:50:36;0.60;;;0.60;;
22026;SDS011;11177;50.966;10.070;2022-10-16T11:01:33;1.48;;;0.50;;
22026;SDS011;11177;50.966;10.070;2022-10-16T11:04:21;1.88;;;0.50;;
22026;SDS011;11177;50.966;10.070;2022-10-16T11:09:53;1.17;;;0.63;;
22026;SDS011;11177;50.966;10.070;2022-10-16T11:12:37;0.50;;;0.50;;
22026;SDS011;11177;50.966;10.070;2022-10-16T11:15:16;0.68;;;0.60;;
22026;SDS011;11177;50.966;10.070;2022-10-16T11:18:11;0.50;;;0.30;;
22026;SDS011;11177;50.966;10.070;2022-10-16T11:20:57;1.40;;;0.43;;
22026;SDS011;11177;50.966;10.070;2022-10-16T11:26:22;1.52;;;0.47;;
22026;SDS011;11177;50.966;10.070;2022-10-16T11:28:56;0.57;;;0.40;;
22026;SDS011;11177;50.966;10.070;2022-10-16T11:37:05;1.25;;;0.50;;
22026;SDS011;11177;50.966;10.070;2022-10-16T11:39:36;0.95;;;0.47;;
22026;SDS011;11177;50.966;10.070;2022-10-16T11:48:18;0.45;;;0.43;;
22026;SDS011;11177;50.966;10.070;2022-10-16T11:50:52;0.63;;;0.60;;
22026;SDS011;11177;50.966;10.070;2022-10-16T11:53:39;1.60;;;0.40;;
22026;SDS011;11177;50.966;10.070;2022-10-16T11:56:16;0.28;;;0.28;;
22026;SDS011;11177;50.966;10.070;2022-10-16T12:04:31;0.93;;;0.50;;
22026;SDS011;11177;50.966;10.070;2022-10-16T12:07:05;2.85;;;0.40;;
22026;SDS011;11177;50.966;10.070;2022-10-16T12:09:37;1.00;;;0.45;;
22026;SDS011;11177;50.966;10.070;2022-10-16T12:15:03;2.72;;;0.40;;
22026;SDS011;11177;50.966;10.070;2022-10-16T12:18:00;1.77;;;0.40;;
22026;SDS011;11177;50.966;10.070;2022-10-16T12:20:31;2.65;;;0.32;;
22026;SDS011;11177;50.966;10.070;2022-10-16T12:23:05;1.10;;;0.40;;
22026;SDS011;11177;50.966;10.070;2022-10-16T12:25:39;2.03;;;0.40;;
22026;SDS011;11177;50.966;10.070;2022-10-16T12:28:27;0.88;;;0.40;;
22026;SDS011;11177;50.966;10.070;2022-10-16T12:30:59;0.68;;;0.50;;
22026;SDS011;11177;50.966;10.070;2022-10-16T12:33:50;1.58;;;1.10;;
22026;SDS011;11177;50.966;10.070;2022-10-16T12:36:43;1.65;;;0.60;;
22026;SDS011;11177;50.966;10.070;2022-10-16T12:39:18;0.63;;;0.40;;
22026;SDS011;11177;50.966;10.070;2022-10-16T12:42:00;1.00;;;0.57;;
22026;SDS011;11177;50.966;10.070;2022-10-16T12:44:33;3.80;;;0.60;;
22026;SDS011;11177;50.966;10.070;2022-10-16T12:47:18;0.45;;;0.40;;
22026;SDS011;11177;50.966;10.070;2022-10-16T12:49:51;0.52;;;0.52;;
22026;SDS011;11177;50.966;10.070;2022-10-16T12:52:28;0.73;;;0.40;;
22026;SDS011;11177;50.966;10.070;2022-10-16T12:55:12;1.10;;;0.30;;
22026;SDS011;11177;50.966;10.070;2022-10-16T13:00:56;2.75;;;0.70;;
22026;SDS011;11177;50.966;10.070;2022-10-16T13:06:28;1.58;;;0.50;;
22026;SDS011;11177;50.966;10.070;2022-10-16T13:12:15;0.57;;;0.57;;
22026;SDS011;11177;50.966;10.070;2022-10-16T13:14:58;0.68;;;0.50;;
22026;SDS011;11177;50.966;10.070;2022-10-16T13:17:51;3.93;;;0.60;;
22026;SDS011;11177;50.966;10.070;2022-10-16T13:21:00;4.20;;;0.85;;
22026;SDS011;11177;50.966;10.070;2022-10-16T13:26:16;1.77;;;0.75;;
22026;SDS011;11177;50.966;10.070;2022-10-16T13:28:51;1.65;;;0.80;;
22026;SDS011;11177;50.966;10.070;2022-10-16T13:31:20;0.60;;;0.60;;
22026;SDS011;11177;50.966;10.070;2022-10-16T13:33:51;1.52;;;1.10;;
22026;SDS011;11177;50.966;10.070;2022-10-16T13:41:34;1.00;;;0.90;;
22026;SDS011;11177;50.966;10.070;2022-10-16T13:44:01;1.98;;;1.00;;
22026;SDS011;11177;50.966;10.070;2022-10-16T13:46:29;1.50;;;0.85;;
22026;SDS011;11177;50.966;10.070;2022-10-16T13:49:02;0.95;;;0.90;;
22026;SDS011;11177;50.966;10.070;2022-10-16T13:51:31;2.20;;;1.00;;
22026;SDS011;11177;50.966;10.070;2022-10-16T13:53:59;2.15;;;1.00;;
22026;SDS011;11177;50.966;10.070;2022-10-16T13:56:28;1.13;;;1.00;;
22026;SDS011;11177;50.966;10.070;2022-10-16T13:59:02;2.05;;;1.15;;
22026;SDS011;11177;50.966;10.070;2022-10-16T14:01:31;2.03;;;1.15;;
22026;SDS011;11177;50.966;10.070;2022-10-16T14:04:11;1.65;;;1.15;;
22026;SDS011;11177;50.966;10.070;2022-10-16T14:06:41;1.23;;;1.13;;
22026;SDS011;11177;50.966;10.070;2022-10-16T14:09:23;4.03;;;1.20;;
22026;SDS011;11177;50.966;10.070;2022-10-16T14:11:57;1.25;;;1.10;;
22026;SDS011;11177;50.966;10.070;2022-10-16T14:14:39;1.25;;;1.17;;
22026;SDS011;11177;50.966;10.070;2022-10-16T14:17:16;1.77;;;1.27;;
22026;SDS011;11177;50.966;10.070;2022-10-16T14:19:49;3.92;;;2.08;;
22026;SDS011;11177;50.966;10.070;2022-10-16T14:24:57;2.65;;;1.30;;
22026;SDS011;11177;50.966;10.070;2022-10-16T14:27:29;1.70;;;1.25;;
22026;SDS011;11177;50.966;10.070;2022-10-16T14:30:19;1.33;;;1.10;;
22026;SDS011;11177;50.966;10.070;2022-10-16T14:32:57;1.92;;;1.38;;
22026;SDS011;11177;50.966;10.070;2022-10-16T14:35:37;2.75;;;1.20;;
22026;SDS011;11177;50.966;10.070;2022-10-16T14:38:06;2.22;;;1.10;;
22026;SDS011;11177;50.966;10.070;2022-10-16T14:40:45;1.15;;;1.00;;
22026;SDS011;11177;50.966;10.070;2022-10-16T14:43:14;2.40;;;1.20;;
22026;SDS011;11177;50.966;10.070;2022-10-16T14:45:52;2.22;;;1.23;;
22026;SDS011;11177;50.966;10.070;2022-10-16T14:48:22;3.33;;;1.17;;
22026;SDS011;11177;50.966;10.070;2022-10-16T14:50:49;1.55;;;1.10;;
22026;SDS011;11177;50.966;10.070;2022-10-16T14:53:16;5.28;;;1.30;;
22026;SDS011;11177;50.966;10.070;2022-10-16T14:55:45;1.33;;;1.20;;
22026;SDS011;11177;50.966;10.070;2022-10-16T15:00:59;4.90;;;1.60;;
22026;SDS011;11177;50.966;10.070;2022-10-16T15:03:26;4.43;;;1.60;;
22026;SDS011;11177;50.966;10.070;2022-10-16T15:05:53;1.60;;;1.50;;
22026;SDS011;11177;50.966;10.070;2022-10-16T15:08:21;1.85;;;1.75;;
22026;SDS011;11177;50.966;10.070;2022-10-16T15:10:49;1.95;;;1.85;;
22026;SDS011;11177;50.966;10.070;2022-10-16T15:13:16;2.88;;;1.98;;
22026;SDS011;11177;50.966;10.070;2022-10-16T15:15:44;1.70;;;1.60;;
22026;SDS011;11177;50.966;10.070;2022-10-16T15:18:13;2.28;;;1.90;;
22026;SDS011;11177;50.966;10.070;2022-10-16T15:20:51;2.60;;;1.90;;
22026;SDS011;11177;50.966;10.070;2022-10-16T15:23:19;2.30;;;2.10;;
22026;SDS011;11177;50.966;10.070;2022-10-16T15:28:17;4.20;;;2.42;;
22026;SDS011;11177;50.966;10.070;2022-10-16T15:30:46;2.85;;;2.40;;
22026;SDS011;11177;50.966;10.070;2022-10-16T15:33:16;3.97;;;2.70;;
22026;SDS011;11177;50.966;10.070;2022-10-16T15:35:46;5.70;;;2.83;;
22026;SDS011;11177;50.966;10.070;2022-10-16T15:38:14;4.07;;;2.40;;
22026;SDS011;11177;50.966;10.070;2022-10-16T15:40:43;2.95;;;2.42;;
22026;SDS011;11177;50.966;10.070;2022-10-16T15:43:10;10.80;;;7.85;;
22026;SDS011;11177;50.966;10.070;2022-10-16T15:45:38;6.38;;;5.30;;
22026;SDS011;11177;50.966;10.070;2022-10-16T15:48:09;4.57;;;3.20;;
22026;SDS011;11177;50.966;10.070;2022-10-16T15:50:39;6.03;;;3.47;;
22026;SDS011;11177;50.966;10.070;2022-10-16T15:53:07;3.70;;;3.28;;
22026;SDS011;11177;50.966;10.070;2022-10-16T15:55:34;4.65;;;3.70;;
22026;SDS011;11177;50.966;10.070;2022-10-16T15:58:04;4.43;;;3.58;;
22026;SDS011;11177;50.966;10.070;2022-10-16T16:00:32;4.05;;;3.10;;
22026;SDS011;11177;50.966;10.070;2022-10-16T16:03:00;4.20;;;3.40;;
22026;SDS011;11177;50.966;10.070;2022-10-16T16:05:28;4.63;;;3.10;;
22026;SDS011;11177;50.966;10.070;2022-10-16T16:07:56;6.35;;;3.20;;
22026;SDS011;11177;50.966;10.070;2022-10-16T16:10:24;6.53;;;3.45;;
22026;SDS011;11177;50.966;10.070;2022-10-16T16:12:52;4.68;;;3.30;;
22026;SDS011;11177;50.966;10.070;2022-10-16T16:15:20;5.50;;;3.05;;
22026;SDS011;11177;50.966;10.070;2022-10-16T16:17:48;4.50;;;3.05;;
22026;SDS011;11177;50.966;10.070;2022-10-16T16:20:16;3.55;;;3.25;;
22026;SDS011;11177;50.966;10.070;2022-10-16T16:22:43;7.97;;;3.10;;
22026;SDS011;11177;50.966;10.070;2022-10-16T16:25:10;5.45;;;3.35;;
22026;SDS011;11177;50.966;10.070;2022-10-16T16:27:37;4.15;;;3.20;;
22026;SDS011;11177;50.966;10.070;2022-10-16T16:30:05;5.28;;;3.38;;
22026;SDS011;11177;50.966;10.070;2022-10-16T16:32:34;5.68;;;3.60;;
22026;SDS011;11177;50.966;10.070;2022-10-16T16:35:02;5.25;;;3.53;;
22026;SDS011;11177;50.966;10.070;2022-10-16T16:37:30;5.68;;;3.50;;
22026;SDS011;11177;50.966;10.070;2022-10-16T16:39:58;7.00;;;3.15;;
22026;SDS011;11177;50.966;10.070;2022-10-16T16:42:30;4.90;;;3.10;;
22026;SDS011;11177;50.966;10.070;2022-10-16T16:44:58;7.50;;;3.38;;
22026;SDS011;11177;50.966;10.070;2022-10-16T16:47:28;3.40;;;3.10;;
22026;SDS011;11177;50.966;10.070;2022-10-16T16:50:00;3.80;;;3.40;;
22026;SDS011;11177;50.966;10.070;2022-10-16T16:52:34;3.55;;;3.25;;
22026;SDS011;11177;50.966;10.070;2022-10-16T16:55:04;5.18;;;3.00;;
22026;SDS011;11177;50.966;10.070;2022-10-16T16:57:32;3.97;;;3.35;;
22026;SDS011;11177;50.966;10.070;2022-10-16T16:59:59;3.75;;;3.45;;